createdAt,value
2023-02-17T00:02:17.681Z,45.00
2023-02-17T00:05:08.516Z,45.30
2023-02-17T00:07:57.810Z,46.23
2023-02-17T00:10:58.167Z,46.57
2023-02-17T00:13:48.520Z,47.60
2023-02-17T00:16:42.245Z,47.47
2023-02-17T00:19:31.622Z,47.37
2023-02-17T00:22:25.057Z,47.20
2023-02-17T00:25:14.465Z,47.57
2023-02-17T00:28:06.070Z,47.33
2023-02-17T00:30:55.600Z,52.73
2023-02-17T00:33:45.227Z,50.47
2023-02-17T00:36:34.635Z,51.63
2023-02-17T00:39:26.909Z,48.17
2023-02-17T00:42:16.262Z,50.37
2023-02-17T00:45:08.282Z,48.80
2023-02-17T00:47:57.668Z,50.37
2023-02-17T00:50:48.360Z,46.63
2023-02-17T00:53:38.142Z,47.53
2023-02-17T00:56:29.325Z,49.03
2023-02-17T00:59:18.574Z,47.20
2023-02-17T01:02:09.639Z,48.40
2023-02-17T01:04:59.062Z,47.20
2023-02-17T01:07:48.921Z,46.77
2023-02-17T01:10:39.793Z,45.20
2023-02-17T01:13:29.466Z,47.23
2023-02-17T01:16:21.616Z,46.83
2023-02-17T01:19:17.735Z,45.80
2023-02-17T01:22:07.300Z,46.97
2023-02-17T01:24:57.372Z,44.13
2023-02-17T01:27:47.485Z,46.23
2023-02-17T01:30:41.202Z,44.57
2023-02-17T01:33:30.527Z,44.53
2023-02-17T01:36:24.942Z,45.93
2023-02-17T01:39:16.135Z,44.87
2023-02-17T01:42:06.186Z,43.57
2023-02-17T01:45:39.222Z,40.30
2023-02-17T01:48:32.777Z,44.07
2023-02-17T01:51:27.413Z,43.43
2023-02-17T01:54:24.334Z,42.50
2023-02-17T01:57:16.962Z,45.43
2023-02-17T02:00:07.837Z,42.53
2023-02-17T02:02:57.818Z,43.53
2023-02-17T02:05:47.785Z,43.80
2023-02-17T02:08:44.582Z,44.83
2023-02-17T02:12:07.676Z,43.50
2023-02-17T02:15:00.621Z,44.77
2023-02-17T02:18:05.136Z,43.33
2023-02-17T02:21:33.504Z,44.37
2023-02-17T02:24:43.886Z,42.43
2023-02-17T02:27:51.362Z,45.30
2023-02-17T02:31:06.878Z,45.67
2023-02-17T02:34:00.183Z,43.47
2023-02-17T02:36:56.970Z,45.63
2023-02-17T02:39:50.736Z,43.63
2023-02-17T02:42:42.551Z,43.77
2023-02-17T02:45:32.422Z,45.97
2023-02-17T02:48:21.921Z,44.57
2023-02-17T02:51:46.390Z,45.47
2023-02-17T02:54:51.440Z,43.27
2023-02-17T02:57:54.352Z,44.47
2023-02-17T03:00:54.397Z,47.00
2023-02-17T03:03:52.654Z,45.57
2023-02-17T03:06:49.228Z,45.17
2023-02-17T03:09:39.026Z,44.30
2023-02-17T03:12:36.661Z,46.20
2023-02-17T03:15:30.809Z,48.07
2023-02-17T03:18:20.608Z,46.07
2023-02-17T03:21:16.706Z,45.47
2023-02-17T03:24:08.248Z,43.23
2023-02-17T03:26:57.872Z,45.73
2023-02-17T03:29:47.300Z,48.03
2023-02-17T03:32:40.219Z,48.80
2023-02-17T03:35:29.925Z,46.57
2023-02-17T03:38:19.267Z,46.57
2023-02-17T03:41:10.208Z,47.07
2023-02-17T03:43:59.541Z,50.40
2023-02-17T03:46:49.390Z,46.27
2023-02-17T03:49:38.796Z,49.07
2023-02-17T03:52:28.405Z,47.40
2023-02-17T03:55:17.863Z,47.73
2023-02-17T03:58:08.682Z,46.87
2023-02-17T04:00:57.980Z,46.43
2023-02-17T04:03:47.703Z,45.37
2023-02-17T04:06:39.102Z,49.90
2023-02-17T04:09:29.491Z,48.37
2023-02-17T04:12:18.830Z,48.80
2023-02-17T04:15:10.192Z,47.53
2023-02-17T04:17:59.536Z,48.17
2023-02-17T04:20:51.398Z,47.13
2023-02-17T04:23:40.879Z,52.00
2023-02-17T04:26:31.171Z,48.57
2023-02-17T04:29:20.443Z,48.70
2023-02-17T04:32:16.886Z,47.53
2023-02-17T04:35:06.555Z,46.97
2023-02-17T04:37:56.338Z,49.77
2023-02-17T04:40:45.653Z,48.70
2023-02-17T04:43:35.510Z,47.20
2023-02-17T04:46:24.886Z,49.13
2023-02-17T04:49:17.482Z,50.77
2023-02-17T04:52:07.166Z,52.30
2023-02-17T04:54:56.645Z,50.03
2023-02-17T04:57:46.039Z,49.73
2023-02-17T05:00:35.417Z,49.73
2023-02-17T05:03:26.076Z,51.57
2023-02-17T05:06:16.835Z,49.60
2023-02-17T05:09:06.471Z,50.70
2023-02-17T05:11:55.782Z,50.53
2023-02-17T05:14:45.354Z,47.40
2023-02-17T05:17:35.059Z,53.50
2023-02-17T05:20:24.528Z,47.33
2023-02-17T05:23:15.434Z,47.57
2023-02-17T05:26:05.102Z,51.57
2023-02-17T05:28:54.843Z,50.20
2023-02-17T05:31:44.500Z,51.53
2023-02-17T05:34:34.684Z,51.17
2023-02-17T05:37:24.087Z,47.60
2023-02-17T05:40:15.154Z,50.53
2023-02-17T05:43:04.956Z,50.63
2023-02-17T05:45:54.393Z,51.17
2023-02-17T05:48:44.539Z,52.67
2023-02-17T05:51:33.867Z,48.90
2023-02-17T05:54:23.976Z,50.80
2023-02-17T05:57:14.811Z,51.33
2023-02-17T06:00:05.059Z,48.47
2023-02-17T06:02:54.562Z,54.27
2023-02-17T06:05:44.146Z,50.27
2023-02-17T06:08:33.602Z,50.63
2023-02-17T06:11:23.615Z,52.83
2023-02-17T06:14:14.396Z,49.40
2023-02-17T06:17:04.554Z,48.37
2023-02-17T06:19:53.890Z,58.10
2023-02-17T06:22:44.022Z,49.23
2023-02-17T06:25:33.623Z,49.43
2023-02-17T06:28:23.309Z,51.43
2023-02-17T06:31:14.268Z,49.60
2023-02-17T06:34:06.664Z,52.20
2023-02-17T06:36:57.034Z,56.90
2023-02-17T06:39:46.440Z,47.40
2023-02-17T06:42:35.762Z,52.20
2023-02-17T06:45:25.392Z,49.73
2023-02-17T06:48:16.338Z,50.00
2023-02-17T06:51:06.594Z,50.70
2023-02-17T06:53:56.456Z,52.27
2023-02-17T06:56:45.794Z,53.83
2023-02-17T06:59:38.147Z,47.07
2023-02-17T07:02:27.605Z,47.00
2023-02-17T07:05:20.660Z,48.67
2023-02-17T07:08:10.056Z,51.77
2023-02-17T07:10:59.841Z,48.67
2023-02-17T07:13:49.518Z,46.83
2023-02-17T07:16:39.884Z,46.73
2023-02-17T07:19:29.343Z,47.53
2023-02-17T07:22:26.111Z,49.73
2023-02-17T07:25:15.522Z,49.43
2023-02-17T07:28:05.256Z,48.43
2023-02-17T07:30:54.788Z,46.47
2023-02-17T07:33:46.423Z,46.20
2023-02-17T07:36:36.163Z,45.10
2023-02-17T07:39:27.143Z,45.57
2023-02-17T07:42:16.933Z,48.10
2023-02-17T07:45:07.962Z,47.87
2023-02-17T07:47:57.432Z,47.80
2023-02-17T07:50:47.106Z,46.70
2023-02-17T07:53:37.244Z,48.00
2023-02-17T07:56:30.527Z,47.60
2023-02-17T07:59:19.947Z,46.27
2023-02-17T08:02:09.755Z,45.13
2023-02-17T08:04:59.208Z,43.03
2023-02-17T08:07:49.122Z,42.27
2023-02-17T08:10:56.727Z,46.83
2023-02-17T08:13:48.869Z,40.87
2023-02-17T08:16:38.478Z,42.67
2023-02-17T08:19:39.529Z,41.33
2023-02-17T08:22:35.775Z,38.20
2023-02-17T08:25:29.928Z,35.63
2023-02-17T08:28:19.290Z,36.90
2023-02-17T08:31:17.764Z,35.43
2023-02-17T08:34:08.781Z,33.97
2023-02-17T08:36:58.695Z,33.43
2023-02-17T08:39:48.193Z,46.93
2023-02-17T08:42:39.675Z,32.13
2023-02-17T08:45:29.112Z,41.90
2023-02-17T08:48:20.498Z,33.97
2023-02-17T08:51:13.436Z,34.27
2023-02-17T08:54:04.656Z,32.60
2023-02-17T08:56:53.994Z,33.50
2023-02-17T08:59:43.858Z,30.47
2023-02-17T09:02:33.212Z,28.90
2023-02-17T09:05:24.924Z,46.97
2023-02-17T09:08:14.447Z,28.67
2023-02-17T09:11:04.294Z,29.20
2023-02-17T09:13:53.828Z,27.23
2023-02-17T09:16:43.292Z,30.17
2023-02-17T09:19:39.940Z,31.70
2023-02-17T09:22:38.690Z,163.17
2023-02-17T09:29:34.398Z,29.57
2023-02-17T09:32:24.966Z,29.93
2023-02-17T09:35:15.782Z,32.23
2023-02-17T09:38:07.607Z,31.13
2023-02-17T09:41:01.186Z,32.40
2023-02-17T09:43:51.738Z,32.13
2023-02-17T09:47:00.644Z,31.97
2023-02-17T09:49:55.018Z,29.70
2023-02-17T09:52:49.893Z,32.57
2023-02-17T09:55:46.328Z,30.13
2023-02-17T09:58:40.692Z,31.47
2023-02-17T10:01:33.549Z,29.73
2023-02-17T10:04:29.714Z,32.10
2023-02-17T10:07:23.138Z,30.77
2023-02-17T10:10:16.882Z,35.13
2023-02-17T10:13:09.745Z,31.57
2023-02-17T10:16:05.580Z,32.27
2023-02-17T10:19:02.005Z,32.53
2023-02-17T10:22:01.069Z,31.67
2023-02-17T10:24:51.101Z,32.83
2023-02-17T10:27:44.998Z,30.63
2023-02-17T10:30:45.324Z,31.77
2023-02-17T10:33:39.221Z,32.30
2023-02-17T10:36:44.736Z,31.40
2023-02-17T10:39:47.948Z,31.57
2023-02-17T10:42:41.104Z,31.33
2023-02-17T10:45:35.338Z,42.57
2023-02-17T10:48:30.486Z,30.57
2023-02-17T10:51:24.761Z,32.20
2023-02-17T10:54:23.647Z,30.27
2023-02-17T10:57:16.785Z,37.43
2023-02-17T11:00:09.915Z,29.07
2023-02-17T11:02:59.698Z,31.70
2023-02-17T11:06:43.905Z,49.37
2023-02-17T11:09:36.797Z,37.63
2023-02-17T11:15:46.099Z,26.37
2023-02-17T11:18:37.715Z,27.70
2023-02-17T11:21:29.767Z,30.53
2023-02-17T11:24:19.454Z,29.30
2023-02-17T11:27:14.099Z,31.03
2023-02-17T11:33:48.221Z,27.30
2023-02-17T11:36:37.828Z,33.13
2023-02-17T11:40:23.679Z,32.83
2023-02-17T11:43:58.715Z,29.67
2023-02-17T11:47:01.253Z,31.63
2023-02-17T11:50:03.973Z,33.23
2023-02-17T11:53:05.871Z,31.70
2023-02-17T11:56:11.355Z,34.57
2023-02-17T11:59:37.910Z,34.10
2023-02-17T12:02:46.122Z,33.67
2023-02-17T12:05:51.571Z,35.80
2023-02-17T12:08:55.796Z,34.17
2023-02-17T12:11:51.260Z,37.33
2023-02-17T12:15:01.203Z,37.80
2023-02-17T12:18:05.275Z,36.20
2023-02-17T12:21:03.944Z,36.40
2023-02-17T12:24:08.936Z,37.50
2023-02-17T12:27:06.283Z,35.53
2023-02-17T12:30:15.315Z,38.27
2023-02-17T12:33:40.046Z,37.30
2023-02-17T12:36:35.318Z,38.57
2023-02-17T12:39:31.413Z,39.67
2023-02-17T12:42:25.531Z,39.47
2023-02-17T12:45:22.433Z,38.23
2023-02-17T12:48:20.378Z,37.97
2023-02-17T12:51:14.323Z,38.27
2023-02-17T12:54:13.028Z,39.47
2023-02-17T12:57:13.053Z,36.90
2023-02-17T13:00:06.175Z,37.77
2023-02-17T13:02:59.793Z,40.30
2023-02-17T13:05:59.834Z,38.27
2023-02-17T13:08:55.982Z,40.37
2023-02-17T13:11:46.288Z,38.07
2023-02-17T13:14:42.799Z,39.23
2023-02-17T13:17:36.351Z,36.97
2023-02-17T13:20:58.448Z,39.30
2023-02-17T13:24:02.517Z,38.07
2023-02-17T13:26:51.962Z,39.63
2023-02-17T13:29:41.689Z,39.70
2023-02-17T13:32:36.553Z,40.40
2023-02-17T13:35:33.980Z,40.70
2023-02-17T13:38:31.333Z,42.13
2023-02-17T13:41:20.780Z,40.43
2023-02-17T13:44:29.119Z,40.90
2023-02-17T13:47:24.472Z,41.33
2023-02-17T13:50:35.362Z,41.33
2023-02-17T13:53:38.114Z,43.53
2023-02-17T13:56:32.508Z,40.40
2023-02-17T13:59:27.911Z,40.03
2023-02-17T14:02:35.677Z,44.70
2023-02-17T14:05:29.944Z,38.37
2023-02-17T14:08:22.903Z,42.10
2023-02-17T14:11:15.861Z,42.87
2023-02-17T14:14:08.087Z,42.60
2023-02-17T14:17:03.445Z,38.53
2023-02-17T14:19:53.187Z,38.47
2023-02-17T14:22:46.941Z,38.03
2023-02-17T14:25:42.327Z,37.37
2023-02-17T14:28:33.532Z,36.00
2023-02-17T14:31:26.295Z,34.23
2023-02-17T14:34:28.950Z,33.70
2023-02-17T14:37:23.385Z,34.03
2023-02-17T14:40:18.566Z,33.67
2023-02-17T14:43:08.297Z,32.30
2023-02-17T14:45:59.565Z,30.90
2023-02-17T14:48:50.315Z,31.37
2023-02-17T14:51:40.867Z,30.17
2023-02-17T14:54:31.315Z,33.27
2023-02-17T14:57:25.956Z,31.67
2023-02-17T15:00:17.192Z,33.47
2023-02-17T15:03:08.708Z,31.90
2023-02-17T15:05:58.912Z,34.50
2023-02-17T15:08:51.559Z,32.80
2023-02-17T15:11:42.887Z,32.93
2023-02-17T15:14:32.609Z,31.73
2023-02-17T15:17:23.843Z,33.53
2023-02-17T15:20:16.962Z,34.10
2023-02-17T15:23:08.672Z,31.67
2023-02-17T15:25:59.410Z,32.77
2023-02-17T15:28:49.616Z,31.80
2023-02-17T15:31:39.223Z,32.73
2023-02-17T15:34:35.590Z,31.70
2023-02-17T15:37:27.052Z,33.10
2023-02-17T15:40:22.891Z,31.03
2023-02-17T15:43:16.718Z,30.00
2023-02-17T15:46:13.702Z,29.40
2023-02-17T15:49:03.669Z,30.00
2023-02-17T15:51:53.894Z,25.87
2023-02-17T15:54:47.007Z,33.13
2023-02-17T15:57:41.839Z,26.40
2023-02-17T16:00:34.510Z,28.63
2023-02-17T16:03:26.922Z,26.37
2023-02-17T16:06:16.834Z,27.37
2023-02-17T16:09:07.857Z,26.10
2023-02-17T16:12:01.346Z,24.10
2023-02-17T16:14:52.252Z,26.57
2023-02-17T16:17:42.997Z,22.20
2023-02-17T16:20:38.531Z,24.00
2023-02-17T16:23:28.391Z,22.13
2023-02-17T16:26:27.896Z,22.53
2023-02-17T16:29:21.707Z,21.50
2023-02-17T16:32:13.957Z,21.83
2023-02-17T16:35:10.015Z,20.23
2023-02-17T16:38:03.701Z,20.57
2023-02-17T16:40:56.146Z,21.17
2023-02-17T16:43:50.229Z,20.20
2023-02-17T16:46:47.195Z,21.37
2023-02-17T16:49:42.933Z,18.77
2023-02-17T16:52:36.363Z,18.43
2023-02-17T16:55:28.510Z,18.23
2023-02-17T16:58:20.058Z,16.67
2023-02-17T17:01:15.295Z,17.23
2023-02-17T17:04:08.034Z,16.33
2023-02-17T17:06:58.070Z,17.73
2023-02-17T17:10:14.864Z,16.10
2023-02-17T17:13:00.098Z,15.30
2023-02-17T17:16:10.222Z,15.13
2023-02-17T17:19:02.004Z,15.67
2023-02-17T17:21:57.796Z,15.07
2023-02-17T17:24:48.471Z,14.43
2023-02-17T17:27:39.286Z,12.73
2023-02-17T17:30:33.574Z,14.50
2023-02-17T17:33:23.855Z,13.90
2023-02-17T17:36:25.342Z,13.07
2023-02-17T17:39:19.714Z,12.23
2023-02-17T17:42:11.819Z,11.00
2023-02-17T17:45:01.910Z,11.80
2023-02-17T17:47:53.523Z,11.90
2023-02-17T17:50:45.111Z,10.33
2023-02-17T17:53:35.848Z,12.23
2023-02-17T17:56:29.820Z,11.17
2023-02-17T17:59:20.655Z,10.70
2023-02-17T18:02:11.468Z,10.47
2023-02-17T18:05:02.183Z,10.77
2023-02-17T18:07:54.589Z,11.33
2023-02-17T18:10:45.367Z,9.93
2023-02-17T18:13:37.823Z,9.63
2023-02-17T18:16:33.472Z,10.93
2023-02-17T18:19:24.193Z,10.07
2023-02-17T18:22:14.537Z,9.63
2023-02-17T18:25:07.392Z,10.20
2023-02-17T18:27:58.114Z,9.77
2023-02-17T18:30:53.969Z,8.83
2023-02-17T18:33:44.780Z,10.57
2023-02-17T18:36:35.552Z,9.27
2023-02-17T18:39:26.101Z,9.40
2023-02-17T18:42:18.978Z,8.20
2023-02-17T18:45:10.746Z,9.43
2023-02-17T18:48:03.856Z,8.73
2023-02-17T18:50:54.519Z,9.13
2023-02-17T18:53:45.020Z,25.83
2023-02-17T18:56:39.932Z,32.37
2023-02-17T18:59:30.011Z,9.50
2023-02-17T19:02:23.132Z,11.80
2023-02-17T19:05:15.902Z,16.57
2023-02-17T19:08:09.450Z,125.07
2023-02-17T19:11:03.744Z,11.67
2023-02-17T19:13:55.548Z,9.40
2023-02-17T19:16:46.403Z,8.50
2023-02-17T19:19:42.847Z,8.40
2023-02-17T19:22:39.211Z,7.97
2023-02-17T19:25:30.906Z,7.47
2023-02-17T19:28:21.697Z,7.00
2023-02-17T19:31:16.974Z,7.20
2023-02-17T19:34:08.855Z,7.00
2023-02-17T19:36:59.464Z,7.33
2023-02-17T19:39:54.495Z,8.60
2023-02-17T19:42:45.898Z,8.53
2023-02-17T19:45:37.677Z,6.90
2023-02-17T19:48:29.623Z,8.70
2023-02-17T19:51:20.407Z,14.17
2023-02-17T19:54:12.802Z,13.30
2023-02-17T19:57:04.934Z,9.13
2023-02-17T19:59:58.389Z,9.30
2023-02-17T20:02:49.190Z,9.27
2023-02-17T20:05:41.633Z,11.33
2023-02-17T20:08:32.913Z,23.00
2023-02-17T20:11:27.838Z,27.67
2023-02-17T20:14:26.021Z,13.57
2023-02-17T20:17:18.585Z,9.90
2023-02-17T20:20:12.055Z,15.83
2023-02-17T20:23:04.785Z,23.30
2023-02-17T20:25:58.262Z,9.73
2023-02-17T20:28:50.990Z,8.97
2023-02-17T20:31:44.544Z,21.77
2023-02-17T20:34:38.706Z,11.73
2023-02-17T20:37:30.235Z,11.30
2023-02-17T20:40:20.440Z,9.40
2023-02-17T20:43:13.245Z,8.53
2023-02-17T20:46:28.971Z,11.17
2023-02-17T20:49:42.453Z,11.93
2023-02-17T20:52:38.080Z,17.80
2023-02-17T20:55:35.353Z,9.30
2023-02-17T20:58:25.602Z,21.77
2023-02-17T21:01:17.076Z,9.47
2023-02-17T21:04:16.356Z,17.43
2023-02-17T21:07:09.982Z,13.83
2023-02-17T21:10:03.137Z,9.87
2023-02-17T21:12:53.656Z,13.73
2023-02-17T21:15:44.143Z,10.53
2023-02-17T21:18:34.650Z,11.00
2023-02-17T21:21:26.775Z,80.97
2023-02-17T21:24:20.330Z,11.10
2023-02-17T21:27:10.501Z,11.93
2023-02-17T21:30:01.841Z,9.73
2023-02-17T21:32:52.276Z,13.63
2023-02-17T21:35:42.667Z,17.63
2023-02-17T21:38:35.674Z,10.70
2023-02-17T21:41:30.527Z,11.50
2023-02-17T21:44:37.258Z,17.23
2023-02-17T21:47:28.790Z,9.73
2023-02-17T21:50:20.076Z,9.10
2023-02-17T21:53:13.876Z,9.17
2023-02-17T21:56:04.821Z,8.03
2023-02-17T21:59:00.456Z,9.90
2023-02-17T22:01:52.338Z,7.73
2023-02-17T22:04:42.580Z,8.27
2023-02-17T22:07:32.468Z,38.50
2023-02-17T22:10:21.894Z,6.60
2023-02-17T22:13:12.436Z,5.87
2023-02-17T22:16:03.356Z,5.37
2023-02-17T22:18:55.026Z,4.50
2023-02-17T22:21:45.291Z,4.50
2023-02-17T22:24:34.770Z,3.73
2023-02-17T22:27:24.236Z,4.30
2023-02-17T22:30:14.061Z,4.23
2023-02-17T22:33:05.181Z,3.77
2023-02-17T22:36:00.087Z,2.90
2023-02-17T22:38:49.711Z,2.13
2023-02-17T22:41:41.069Z,1.70
2023-02-17T22:44:32.419Z,1.70
2023-02-17T22:47:21.783Z,2.47
2023-02-17T22:50:13.221Z,1.60
2023-02-17T22:53:02.777Z,1.70
2023-02-17T22:55:55.969Z,2.00
2023-02-17T22:58:45.410Z,2.20
2023-02-17T23:01:36.742Z,2.00
2023-02-17T23:04:26.112Z,2.20
2023-02-17T23:07:17.283Z,1.83
2023-02-17T23:10:07.590Z,1.80
2023-02-17T23:12:57.231Z,2.10
2023-02-17T23:15:46.921Z,1.60
2023-02-17T23:18:37.652Z,2.10
2023-02-17T23:21:27.111Z,1.47
2023-02-17T23:24:19.120Z,3.10
2023-02-17T23:27:08.620Z,1.77
2023-02-17T23:29:58.415Z,1.77
2023-02-17T23:32:47.982Z,2.43
2023-02-17T23:35:41.714Z,1.90
2023-02-17T23:38:31.100Z,1.90
2023-02-17T23:41:24.217Z,1.87
2023-02-17T23:44:15.294Z,1.40
2023-02-17T23:47:51.210Z,1.63
2023-02-17T23:53:51.474Z,1.60
2023-02-17T23:56:42.493Z,1.80
2023-02-17T23:59:34.330Z,2.00
